Terminal Aerodrome Forecast
Issued by NWS

Home | Current Version | Previous Version | Text Only | Print | Product List | Glossary On
Versions: 1 2 3 4 5 6 7 8 9 10 11 12 13 14 15 16 17 18 19 20 21 22 23 24 25 26 27 28 29 30 31 32
000
FTUS46 KLOX 110001 RRA
TAFSBP
TAF
KSBP 110001Z 1100/1124 31008KT 5SM -SHRA BR SCT007 BKN012 OVC025
      TEMPO 1100/1102 2SM -RA BR BKN007 OVC012
     FM110200 31006KT 2SM -RA BR BKN004 OVC008
     FM111300 16005KT 4SM BR VCSH BKN008 OVC015
     FM111600 32006KT 5SM -SHRA BR BKN012 OVC025
     FM112000 32011KT P6SM SCT012 BKN025=

USA.gov is the U.S. government's official web portal to all federal, state and local government web resources and services.